Galicia — ECEC — position and weather

sailwx.info

Track history (hours):
 
Tides and Currents Weather Stations Pressure Air Temp Water Temp Dewpoint Dewpoint Depression Visibility Wind Speed Wind Dir Waves Ship Positions

Galicia

Last reported at 2015-Aug-09 21:30 UTC. Time now 2015-Sep-01 03:56 UTC.
Position N 32°55' W 009°40'.
Warning: this ship's position is 22 days out of date.

Length 149 m; draft 5.7 m.

Type: Cargo ship. MMSI: 224548000.

Date/timePositionNaut miles runAvg speedWind from/ knotsBaromVisibWave heightAir tempDewpointWater temp
2015-Aug-09 21:30N 32°55' W 009°40'4914.6
2015-Aug-09 18:08N 33°29' W 008°58'6814.3
2015-Aug-09 13:24N 34°16' W 007°60'38613.4
2015-Aug-08 08:32N 37°16' W 000°59'1514.8
2015-Aug-08 07:33N 37°25' W 000°45'1514.8
2015-Aug-08 06:33N 37°36' W 000°32'1514.8
2015-Aug-08 05:33N 37°48' W 000°22'1514.7
2015-Aug-08 04:33N 38°01' W 000°12'1514.8
2015-Aug-08 03:33N 38°13' W 000°02'1814.7
2015-Aug-08 02:21N 38°28' E 000°11'1515.0
2015-Aug-08 01:23N 38°40' E 000°21'4314.8
2015-Aug-07 22:29N 39°17' E 000°48'3014.3
2015-Aug-07 20:24N 39°44' E 001°06'1214.4
2015-Aug-07 19:33N 39°54' E 001°14'1414.5
2015-Aug-07 18:33N 40°07' E 001°23'1514.5
2015-Aug-07 17:33N 40°20' E 001°33'1514.7
2015-Aug-07 16:33N 40°32' E 001°42'1515.1
2015-Aug-07 15:33N 40°46' E 001°51'1514.7
2015-Aug-07 14:33N 40°59' E 002°01'1614.3
2015-Aug-07 13:27N 41°13' E 002°10'9 1.5
2015-Aug-07 07:12N 41°22' E 002°11'0 0.0
2015-Aug-07 05:30N 41°22' E 002°11'0 0.0
2015-Aug-07 04:32N 41°22' E 002°11'6 6.2
2015-Aug-07 03:33N 41°16' E 002°12'1414.3
2015-Aug-07 02:33N 41°03' E 002°05'1414.2
2015-Aug-07 01:33N 40°50' E 001°56'1414.3
2015-Aug-07 00:33N 40°37' E 001°47'1514.6
2015-Aug-06 23:33N 40°25' E 001°38'1414.6
2015-Aug-06 22:33N 40°12' E 001°29'1514.7
2015-Aug-06 21:33N 39°59' E 001°21'1514.8
2015-Aug-06 20:33N 39°45' E 001°12'1714.7
2015-Aug-06 19:24N 39°31' E 001°01'1315.3
2015-Aug-06 18:33N 39°19' E 000°53'1514.9
2015-Aug-06 17:33N 39°06' E 000°44'1514.6
2015-Aug-06 16:33N 38°53' E 000°35'1514.6
2015-Aug-06 15:32N 38°40' E 000°26'1514.8
2015-Aug-06 14:33N 38°28' E 000°16'1514.9
2015-Aug-06 13:33N 38°15' E 000°06'1514.6
2015-Aug-06 12:32N 38°03' W 000°05'1414.6
2015-Aug-06 11:33N 37°51' W 000°14'1514.5
2015-Aug-06 10:33N 37°39' W 000°25'1714.6
2015-Aug-06 09:23N 37°27' W 000°40'1214.5
2015-Aug-06 08:33N 37°19' W 000°51'1414.3
2015-Aug-06 07:33N 37°09' W 001°05'1414.5
2015-Aug-06 06:33N 36°60' W 001°18'  
2015-Aug-04 00:09N 30°07' W 013°56'1214.4
2015-Aug-03 23:21N 29°60' W 014°06'3214.5
2015-Aug-03 21:08N 29°39' W 014°34'2314.4
2015-Aug-03 19:31N 29°24' W 014°54'1414.4
2015-Aug-03 18:33N 29°15' W 015°06'1714.5
2015-Aug-03 17:21N 29°03' W 015°21'1114.3
2015-Aug-03 16:33N 28°56' W 015°31'1514.7
2015-Aug-03 15:33N 28°46' W 015°44'1515.0
2015-Aug-03 14:33N 28°37' W 015°57'1714.0
2015-Aug-03 13:22N 28°29' W 016°14'1 0.1
2015-Aug-03 06:11N 28°29' W 016°15'3 4.4
2015-Aug-03 05:30N 28°28' W 016°11'1011.0
2015-Aug-03 04:33N 28°25' W 016°00'1414.4
2015-Aug-03 03:33N 28°20' W 015°45'1414.5
2015-Aug-03 02:33N 28°15' W 015°29'8 7.8
2015-Aug-03 01:33N 28°08' W 015°25'1 0.7
2015-Aug-03 00:24N 28°09' W 015°25'0 0.0
2015-Aug-02 23:24N 28°09' W 015°25'0 0.0
2015-Aug-02 22:27N 28°09' W 015°25'0 0.0
2015-Aug-02 21:27N 28°09' W 015°25'0 0.0
2015-Aug-02 20:27N 28°09' W 015°25'0 0.0
2015-Aug-02 19:27N 28°09' W 015°25'0 0.0
2015-Aug-02 18:27N 28°09' W 015°25'0 0.0
2015-Aug-02 17:27N 28°09' W 015°25'0 0.0
2015-Aug-02 16:30N 28°09' W 015°25'0 0.0
2015-Aug-02 15:30N 28°09' W 015°25'0 0.0
2015-Aug-02 14:30N 28°09' W 015°25'0 0.0
2015-Aug-02 13:15N 28°09' W 015°25'0 0.0
2015-Aug-02 12:30N 28°09' W 015°25'0 0.0
2015-Aug-02 11:33N 28°09' W 015°25'0 0.0
2015-Aug-02 10:33N 28°09' W 015°25'0 0.0
2015-Aug-02 09:33N 28°09' W 015°25'0 0.0
2015-Aug-02 08:33N 28°09' W 015°25'0 0.0
2015-Aug-02 07:33N 28°09' W 015°25'0 0.0
2015-Aug-02 06:34N 28°09' W 015°25'3 2.9
2015-Aug-02 05:33N 28°08' W 015°22'9 8.8
2015-Aug-02 04:33N 28°14' W 015°15'9 9.2
2015-Aug-02 03:33N 28°20' W 015°07'9 9.3
2015-Aug-02 02:33N 28°26' W 014°59'10 9.8
2015-Aug-02 01:33N 28°32' W 014°51'10 9.8
2015-Aug-02 00:33N 28°39' W 014°42'  
Track history (hours):
 
Tides and Currents Weather Stations Pressure Air Temp Water Temp Dewpoint Dewpoint Depression Visibility Wind Speed Wind Dir Waves Ship Positions

Galicia

Last reported at 2015-Aug-09 21:30 UTC. Time now 2015-Sep-01 03:56 UTC.
Position N 32°55' W 009°40'.
Warning: this ship's position is 22 days out of date.

Length 149 m; draft 5.7 m.

Type: Cargo ship. MMSI: 224548000.

Date/timePositionNaut miles runAvg speedWind from/ knotsBaromVisibWave heightAir tempDewpointWater temp
2015-Aug-09 21:30N 32°55' W 009°40'4914.6
2015-Aug-09 18:08N 33°29' W 008°58'6814.3
2015-Aug-09 13:24N 34°16' W 007°60'38613.4
2015-Aug-08 08:32N 37°16' W 000°59'1514.8
2015-Aug-08 07:33N 37°25' W 000°45'1514.8
2015-Aug-08 06:33N 37°36' W 000°32'1514.8
2015-Aug-08 05:33N 37°48' W 000°22'1514.7
2015-Aug-08 04:33N 38°01' W 000°12'1514.8
2015-Aug-08 03:33N 38°13' W 000°02'1814.7
2015-Aug-08 02:21N 38°28' E 000°11'1515.0
2015-Aug-08 01:23N 38°40' E 000°21'4314.8
2015-Aug-07 22:29N 39°17' E 000°48'3014.3
2015-Aug-07 20:24N 39°44' E 001°06'1214.4
2015-Aug-07 19:33N 39°54' E 001°14'1414.5
2015-Aug-07 18:33N 40°07' E 001°23'1514.5
2015-Aug-07 17:33N 40°20' E 001°33'1514.7
2015-Aug-07 16:33N 40°32' E 001°42'1515.1
2015-Aug-07 15:33N 40°46' E 001°51'1514.7
2015-Aug-07 14:33N 40°59' E 002°01'1614.3
2015-Aug-07 13:27N 41°13' E 002°10'9 1.5
2015-Aug-07 07:12N 41°22' E 002°11'0 0.0
2015-Aug-07 05:30N 41°22' E 002°11'0 0.0
2015-Aug-07 04:32N 41°22' E 002°11'6 6.2
2015-Aug-07 03:33N 41°16' E 002°12'1414.3
2015-Aug-07 02:33N 41°03' E 002°05'1414.2
2015-Aug-07 01:33N 40°50' E 001°56'1414.3
2015-Aug-07 00:33N 40°37' E 001°47'1514.6
2015-Aug-06 23:33N 40°25' E 001°38'1414.6
2015-Aug-06 22:33N 40°12' E 001°29'1514.7
2015-Aug-06 21:33N 39°59' E 001°21'1514.8
2015-Aug-06 20:33N 39°45' E 001°12'1714.7
2015-Aug-06 19:24N 39°31' E 001°01'1315.3
2015-Aug-06 18:33N 39°19' E 000°53'1514.9
2015-Aug-06 17:33N 39°06' E 000°44'1514.6
2015-Aug-06 16:33N 38°53' E 000°35'1514.6
2015-Aug-06 15:32N 38°40' E 000°26'1514.8
2015-Aug-06 14:33N 38°28' E 000°16'1514.9
2015-Aug-06 13:33N 38°15' E 000°06'1514.6
2015-Aug-06 12:32N 38°03' W 000°05'1414.6
2015-Aug-06 11:33N 37°51' W 000°14'1514.5
2015-Aug-06 10:33N 37°39' W 000°25'1714.6
2015-Aug-06 09:23N 37°27' W 000°40'1214.5
2015-Aug-06 08:33N 37°19' W 000°51'1414.3
2015-Aug-06 07:33N 37°09' W 001°05'1414.5
2015-Aug-06 06:33N 36°60' W 001°18'  
2015-Aug-04 00:09N 30°07' W 013°56'1214.4
2015-Aug-03 23:21N 29°60' W 014°06'3214.5
2015-Aug-03 21:08N 29°39' W 014°34'2314.4
2015-Aug-03 19:31N 29°24' W 014°54'1414.4
2015-Aug-03 18:33N 29°15' W 015°06'1714.5
2015-Aug-03 17:21N 29°03' W 015°21'1114.3
2015-Aug-03 16:33N 28°56' W 015°31'1514.7
2015-Aug-03 15:33N 28°46' W 015°44'1515.0
2015-Aug-03 14:33N 28°37' W 015°57'1714.0
2015-Aug-03 13:22N 28°29' W 016°14'1 0.1
2015-Aug-03 06:11N 28°29' W 016°15'3 4.4
2015-Aug-03 05:30N 28°28' W 016°11'1011.0
2015-Aug-03 04:33N 28°25' W 016°00'1414.4
2015-Aug-03 03:33N 28°20' W 015°45'1414.5
2015-Aug-03 02:33N 28°15' W 015°29'8 7.8
2015-Aug-03 01:33N 28°08' W 015°25'1 0.7
2015-Aug-03 00:24N 28°09' W 015°25'0 0.0
2015-Aug-02 23:24N 28°09' W 015°25'0 0.0
2015-Aug-02 22:27N 28°09' W 015°25'0 0.0
2015-Aug-02 21:27N 28°09' W 015°25'0 0.0
2015-Aug-02 20:27N 28°09' W 015°25'0 0.0
2015-Aug-02 19:27N 28°09' W 015°25'0 0.0
2015-Aug-02 18:27N 28°09' W 015°25'0 0.0
2015-Aug-02 17:27N 28°09' W 015°25'0 0.0
2015-Aug-02 16:30N 28°09' W 015°25'0 0.0
2015-Aug-02 15:30N 28°09' W 015°25'0 0.0
2015-Aug-02 14:30N 28°09' W 015°25'0 0.0
2015-Aug-02 13:15N 28°09' W 015°25'0 0.0
2015-Aug-02 12:30N 28°09' W 015°25'0 0.0
2015-Aug-02 11:33N 28°09' W 015°25'0 0.0
2015-Aug-02 10:33N 28°09' W 015°25'0 0.0
2015-Aug-02 09:33N 28°09' W 015°25'0 0.0
2015-Aug-02 08:33N 28°09' W 015°25'0 0.0
2015-Aug-02 07:33N 28°09' W 015°25'0 0.0
2015-Aug-02 06:34N 28°09' W 015°25'3 2.9
2015-Aug-02 05:33N 28°08' W 015°22'9 8.8
2015-Aug-02 04:33N 28°14' W 015°15'9 9.2
2015-Aug-02 03:33N 28°20' W 015°07'9 9.3
2015-Aug-02 02:33N 28°26' W 014°59'10 9.8
2015-Aug-02 01:33N 28°32' W 014°51'10 9.8
2015-Aug-02 00:33N 28°39' W 014°42'  

Dump ship's entire track history